Archival Weather

Abadan

Abadan, Iran (OIAA)

Report from: Thursday, September 21, 2023 2:30 PM UTC
Current time: Sunday, February 25, 2024 8:37 PM UTC

Current weather – Weather history – Daily summaries
Weather forecast

Temperature41.0°C (105.8°F)
Heat index38.3°C (101.0°F)
Dew point5.0°C (41.0°F)
Winds 6 kts (3.1 m/s, 6.9 mph) North-Northwest (330°)
Clouds Sky clear
Altimeter29.65 in.Hg (1004 mB)
Relative humidity11 %
Density altitude3,355 ft. (1,023 m)
Remarks Ceiling and visibility OK
Flight conditions Visual Meteorological Conditions
Raw dataOIAA 211430Z 33006KT CAVOK 41/05 Q1004
An error has occurred. This application may no longer respond until reloaded. Reload 🗙